Time;durP1;ratioP1;P1;durP2;ratioP2;P2;SDS_P1;SDS_P2;PMS_P1;PMS_P2;Temp;Humidity;BMP_temperature;BMP_pressure;BME280_temperature;BME280_humidity;BME280_pressure;Samples;Min_cycle;Max_cycle;Signal;HPM_P1;HPM_P2
2022/01/15 00:02:17;;;;;;;12.30;11.60;;;;;;;4.66;65.77;92961.78;4998216;28;20251;-82
2022/01/15 00:04:43;;;;;;;12.50;11.73;;;;;;;4.63;66.22;92972.59;5000587;28;20191;-79
2022/01/15 00:07:08;;;;;;;14.07;13.03;;;;;;;4.72;66.81;92994.47;4992024;28;20228;-84
2022/01/15 00:09:34;;;;;;;12.07;11.27;;;;;;;4.60;67.39;92975.66;4993240;28;20192;-83
2022/01/15 00:11:59;;;;;;;12.87;12.07;;;;;;;4.60;67.73;92973.88;4986953;28;20223;-80
2022/01/15 00:14:35;;;;;;;15.03;13.87;;;;;;;4.59;68.20;92995.56;5012565;28;20278;-82
2022/01/15 00:17:14;;;;;;;14.97;13.97;;;;;;;4.49;68.27;92969.53;5011096;28;20219;-80
2022/01/15 00:19:42;;;;;;;14.70;13.90;;;;;;;4.48;68.50;92974.94;5011660;28;20218;-81
2022/01/15 00:22:13;;;;;;;14.83;13.80;;;;;;;4.43;69.13;92969.69;4993155;28;20230;-80
2022/01/15 00:24:39;;;;;;;13.73;12.73;;;;;;;4.39;68.77;92960.84;4991653;28;20196;-79
2022/01/15 00:27:05;;;;;;;17.07;14.20;;;;;;;4.52;69.04;92983.78;5005546;28;20246;-80
2022/01/15 00:29:32;;;;;;;20.07;17.67;;;;;;;4.43;69.09;92969.69;5009665;28;20183;-80
2022/01/15 00:31:58;;;;;;;12.33;11.43;;;;;;;4.56;69.17;92990.84;4995673;28;20242;-81
2022/01/15 00:34:24;;;;;;;14.60;13.70;;;;;;;4.52;68.99;92996.72;4991327;28;20192;-80
2022/01/15 00:36:49;;;;;;;10.90;10.20;;;;;;;4.33;69.52;92975.44;4991694;28;20234;-82
2022/01/15 00:39:15;;;;;;;12.87;12.07;;;;;;;4.43;68.90;93001.50;4993057;28;20215;-77
2022/01/15 00:41:40;;;;;;;15.00;14.17;;;;;;;4.47;69.27;93007.75;4985813;28;20227;-80
2022/01/15 00:44:06;;;;;;;13.57;12.67;;;;;;;4.62;68.85;93015.75;5012010;28;20179;-79
2022/01/15 00:46:31;;;;;;;13.10;12.30;;;;;;;4.63;70.97;93011.38;5000144;28;20236;-80
2022/01/15 00:48:56;;;;;;;13.90;13.10;;;;;;;4.79;67.49;93008.81;4975701;28;20243;-82
2022/01/15 00:51:23;;;;;;;12.20;11.47;;;;;;;4.70;68.01;93014.63;5001323;28;20694;-79
2022/01/15 00:53:49;;;;;;;12.27;11.47;;;;;;;4.75;68.27;93012.09;5011872;28;20227;-80
2022/01/15 00:56:14;;;;;;;12.03;11.30;;;;;;;4.54;68.92;92987.72;5011343;28;20239;-81
2022/01/15 00:58:40;;;;;;;12.90;12.10;;;;;;;4.71;68.54;92975.59;4993547;28;20215;-81
2022/01/15 01:01:05;;;;;;;11.90;11.20;;;;;;;4.72;67.92;92997.84;5001734;28;20307;-81
2022/01/15 01:03:31;;;;;;;12.10;11.30;;;;;;;4.85;68.37;92996.78;4990089;28;20192;-81
2022/01/15 01:05:56;;;;;;;13.70;12.80;;;;;;;4.91;67.77;92995.84;4989808;28;20255;-81
2022/01/15 01:08:22;;;;;;;11.33;10.53;;;;;;;4.88;68.21;92991.91;4975354;28;20192;-80
2022/01/15 01:10:54;;;;;;;13.40;12.40;;;;;;;4.74;68.32;92975.13;4994402;28;20227;-81
2022/01/15 01:24:15;;;;;;;11.37;10.53;;;;;;;4.81;68.49;93021.50;4992160;28;20874;-81
2022/01/15 01:26:50;;;;;;;15.53;14.53;;;;;;;4.70;68.35;92981.00;4991119;28;20228;-81
2022/01/15 01:34:32;;;;;;;12.27;11.27;;;;;;;4.75;68.87;92997.38;4990357;28;20569;-80
2022/01/15 01:44:40;;;;;;;12.57;11.67;;;;;;;4.96;67.45;92977.81;4991725;28;20254;-79
2022/01/15 01:47:14;;;;;;;11.50;10.60;;;;;;;4.63;68.49;92957.88;4992045;28;20315;-78
2022/01/15 01:49:42;;;;;;;13.90;13.00;;;;;;;4.75;68.33;92961.19;4992103;28;20191;-80
2022/01/15 01:52:07;;;;;;;12.00;11.20;;;;;;;4.81;68.16;92975.75;4989694;28;20253;-79
2022/01/15 01:54:33;;;;;;;16.00;14.77;;;;;;;5.02;68.03;92979.44;4991328;28;20199;-81
2022/01/15 01:56:58;;;;;;;11.90;11.10;;;;;;;5.23;67.56;92970.97;4989670;28;20228;-80
2022/01/15 01:59:24;;;;;;;13.37;12.53;;;;;;;5.13;67.99;92968.25;4990908;28;20326;-81
2022/01/15 02:01:50;;;;;;;12.70;11.70;;;;;;;5.09;67.82;92961.19;4989881;28;20308;-79
2022/01/15 02:04:16;;;;;;;13.33;12.50;;;;;;;5.18;67.61;92973.50;4990993;28;20203;-81
2022/01/15 02:06:41;;;;;;;12.33;11.37;;;;;;;5.22;68.94;92977.16;5002153;28;20219;-79
2022/01/15 02:09:08;;;;;;;12.67;11.70;;;;;;;5.26;68.22;92986.00;5009434;28;20199;-80
2022/01/15 02:11:33;;;;;;;18.23;17.23;;;;;;;5.15;67.11;92993.88;5009429;28;20309;-80
2022/01/15 02:13:59;;;;;;;14.50;13.37;;;;;;;5.10;66.98;92980.84;5009515;28;20199;-80
2022/01/15 02:16:24;;;;;;;12.27;11.37;;;;;;;5.20;67.01;92968.09;5008860;28;20243;-79
2022/01/15 02:18:53;;;;;;;13.40;12.43;;;;;;;5.19;67.49;92987.19;5009938;28;20252;-80
2022/01/15 02:23:51;;;;;;;11.53;10.83;;;;;;;5.16;67.40;92974.72;5010176;28;20286;-78
2022/01/15 02:26:26;;;;;;;11.40;10.77;;;;;;;5.25;67.05;92991.44;5009387;28;20237;-80
2022/01/15 02:29:02;;;;;;;11.37;10.57;;;;;;;5.10;67.75;92983.44;5009955;28;20222;-80
2022/01/15 02:31:30;;;;;;;14.30;13.30;;;;;;;5.17;67.13;92994.44;5008426;28;20218;-81
2022/01/15 02:33:57;;;;;;;12.37;11.40;;;;;;;4.98;66.86;92986.91;5008273;28;20179;-79
2022/01/15 02:36:25;;;;;;;11.37;10.63;;;;;;;4.95;66.89;92983.97;5008498;28;20258;-81
2022/01/15 02:38:51;;;;;;;11.97;11.07;;;;;;;4.89;67.27;92998.66;5008976;28;20260;-80
2022/01/15 02:41:37;;;;;;;14.67;13.67;;;;;;;5.00;66.54;92999.59;5009123;28;20287;-78
2022/01/15 02:44:06;;;;;;;13.50;12.60;;;;;;;4.87;66.95;93013.63;5008391;28;20191;-78
2022/01/15 02:49:01;;;;;;;14.03;13.13;;;;;;;4.75;68.12;93018.06;5009480;28;21021;-81
2022/01/15 02:51:32;;;;;;;13.50;12.17;;;;;;;4.73;67.44;93009.00;5008039;28;20218;-80
2022/01/15 02:53:57;;;;;;;12.77;11.77;;;;;;;4.57;67.34;93010.53;5008152;28;20254;-81
2022/01/15 02:56:25;;;;;;;13.73;12.60;;;;;;;4.45;66.88;92988.34;5009152;28;20226;-79
2022/01/15 02:58:50;;;;;;;12.97;12.07;;;;;;;4.64;67.45;93008.56;5008378;28;20219;-80
2022/01/15 03:01:16;;;;;;;13.63;12.63;;;;;;;4.45;68.30;92999.44;5009460;28;20253;-80
2022/01/15 03:03:41;;;;;;;12.13;11.33;;;;;;;4.55;68.18;93009.97;5009782;28;20193;-82
2022/01/15 03:06:12;;;;;;;13.70;12.73;;;;;;;4.66;67.80;92998.78;5008470;28;20346;-81
2022/01/15 03:08:42;;;;;;;14.10;13.03;;;;;;;4.56;69.63;93019.28;5009833;28;20195;-79
2022/01/15 03:11:09;;;;;;;13.23;12.40;;;;;;;4.44;67.18;93015.97;5007877;28;20233;-80
2022/01/15 03:13:36;;;;;;;12.47;11.37;;;;;;;4.38;67.02;93024.66;5009400;28;20713;-79
2022/01/15 03:16:02;;;;;;;14.07;12.97;;;;;;;4.18;66.87;93010.56;5008923;28;20215;-80
2022/01/15 03:18:28;;;;;;;14.67;13.37;;;;;;;3.97;66.97;93004.22;5009569;28;20223;-81
2022/01/15 03:20:53;;;;;;;13.87;12.77;;;;;;;4.20;66.95;93017.06;5008870;28;20320;-79
2022/01/15 03:23:18;;;;;;;14.97;13.97;;;;;;;4.03;66.70;93013.63;5009152;28;20206;-80
2022/01/15 03:25:44;;;;;;;13.80;12.90;;;;;;;4.03;66.34;93034.28;4991543;28;20223;-79
2022/01/15 03:28:10;;;;;;;18.43;17.00;;;;;;;4.05;66.53;93032.28;5008195;28;20227;-79
2022/01/15 03:30:36;;;;;;;14.83;13.50;;;;;;;4.06;67.12;93033.84;4990490;28;20325;-80
2022/01/15 03:33:01;;;;;;;13.93;12.97;;;;;;;4.08;67.57;93025.84;5010316;28;20222;-79
2022/01/15 03:35:27;;;;;;;14.03;12.43;;;;;;;4.06;69.89;93015.75;5012121;28;20275;-79
2022/01/15 03:37:52;;;;;;;13.90;12.80;;;;;;;4.09;68.16;93024.84;5012824;28;20206;-80
2022/01/15 03:40:18;;;;;;;14.90;13.90;;;;;;;4.10;68.10;93040.13;5011785;28;20183;-80
2022/01/15 03:42:44;;;;;;;17.10;15.80;;;;;;;4.09;68.36;93035.97;5013503;28;20180;-82
2022/01/15 03:45:11;;;;;;;14.43;13.30;;;;;;;4.09;68.57;93042.94;5012316;28;20184;-80
2022/01/15 03:47:37;;;;;;;13.33;12.33;;;;;;;4.20;69.32;93040.31;5012571;28;20239;-79
2022/01/15 03:50:03;;;;;;;13.33;12.53;;;;;;;4.23;69.46;93055.38;5014346;28;20211;-81
2022/01/15 03:52:29;;;;;;;13.50;12.37;;;;;;;3.95;69.21;93021.75;5011110;28;20238;-80
2022/01/15 03:54:56;;;;;;;13.27;12.33;;;;;;;4.04;70.88;93048.78;5012749;28;20287;-80
2022/01/15 03:57:22;;;;;;;15.27;14.30;;;;;;;4.23;69.62;93050.22;5011392;28;20223;-80
2022/01/15 03:59:47;;;;;;;13.57;12.77;;;;;;;4.04;69.95;93035.88;5012713;28;20199;-79
2022/01/15 04:02:13;;;;;;;14.23;13.23;;;;;;;3.94;70.03;93040.06;5012769;28;20248;-79
2022/01/15 04:04:38;;;;;;;12.73;11.70;;;;;;;4.06;71.18;93054.50;5012691;28;20223;-78
2022/01/15 04:07:04;;;;;;;12.73;11.83;;;;;;;3.86;71.79;93037.81;4998201;28;20227;-78
2022/01/15 04:09:29;;;;;;;15.10;13.63;;;;;;;3.78;70.92;93064.78;4992868;28;20196;-79
2022/01/15 04:11:54;;;;;;;13.97;12.83;;;;;;;3.65;71.44;93046.94;4992445;28;20224;-79
2022/01/15 04:14:20;;;;;;;14.70;13.43;;;;;;;3.73;71.56;93075.00;4993631;28;20197;-80
2022/01/15 04:16:45;;;;;;;15.73;14.77;;;;;;;3.84;71.04;93081.16;4992663;28;20231;-80
2022/01/15 04:19:11;;;;;;;14.37;13.33;;;;;;;3.75;71.72;93079.94;4993220;28;20818;-80
2022/01/15 04:21:37;;;;;;;14.63;13.57;;;;;;;3.83;71.44;93097.66;4993443;28;20231;-80
2022/01/15 04:24:03;;;;;;;14.93;13.63;;;;;;;3.62;70.90;93093.84;4992696;28;20219;-81
2022/01/15 04:26:28;;;;;;;14.47;13.17;;;;;;;3.53;71.07;93105.53;4992336;28;20238;-80
2022/01/15 04:29:02;;;;;;;14.80;13.47;;;;;;;3.50;71.45;93100.81;4990347;28;20192;-80
2022/01/15 04:31:27;;;;;;;16.47;15.37;;;;;;;3.47;71.66;93111.56;4990209;28;20224;-80
2022/01/15 04:33:53;;;;;;;15.23;13.83;;;;;;;3.43;71.47;93114.81;4993634;28;20192;-81
2022/01/15 04:36:18;;;;;;;19.13;17.67;;;;;;;3.33;73.81;93085.19;4999639;28;20219;-81
2022/01/15 04:38:44;;;;;;;18.23;16.97;;;;;;;3.41;73.71;93094.38;5011289;28;20235;-81
2022/01/15 04:41:10;;;;;;;15.83;14.43;;;;;;;3.43;72.56;93125.91;5003276;28;20303;-82
2022/01/15 04:43:36;;;;;;;15.03;13.73;;;;;;;3.26;72.57;93114.69;4990965;28;20208;-80
2022/01/15 04:46:02;;;;;;;16.63;15.40;;;;;;;3.25;72.42;93097.63;4991981;28;20247;-81
2022/01/15 04:48:28;;;;;;;15.97;14.73;;;;;;;3.25;72.42;93113.13;4991837;28;20192;-79
2022/01/15 04:50:54;;;;;;;16.30;15.20;;;;;;;3.09;72.99;93093.13;4991136;28;20229;-80
2022/01/15 04:53:19;;;;;;;15.70;14.30;;;;;;;3.16;73.75;93115.22;4992910;28;20280;-79
2022/01/15 04:55:45;;;;;;;16.67;15.47;;;;;;;3.10;72.88;93116.09;4994972;28;20241;-79
2022/01/15 04:58:11;;;;;;;18.47;17.10;;;;;;;3.17;73.28;93145.19;5011916;28;20221;-81
2022/01/15 05:00:36;;;;;;;16.47;15.03;;;;;;;3.21;73.17;93122.28;5009112;28;20235;-80
2022/01/15 05:03:03;;;;;;;15.67;14.33;;;;;;;3.16;73.43;93119.56;4991660;28;20239;-80
2022/01/15 05:05:29;;;;;;;16.43;14.93;;;;;;;3.23;73.40;93121.06;4991573;28;20211;-78
2022/01/15 05:07:55;;;;;;;15.40;14.00;;;;;;;3.18;77.53;93113.22;4992054;28;20184;-85
2022/01/15 05:10:25;;;;;;;16.27;14.77;;;;;;;3.01;73.64;93129.53;4991886;28;20203;-82
2022/01/15 05:12:51;;;;;;;14.27;13.13;;;;;;;2.97;74.05;93131.75;4992408;28;20254;-81
2022/01/15 05:15:18;;;;;;;17.30;16.00;;;;;;;3.03;74.40;93110.28;4990572;28;20196;-81
2022/01/15 05:17:45;;;;;;;14.97;13.57;;;;;;;3.22;74.49;93158.19;4990730;28;20290;-82
2022/01/15 05:20:12;;;;;;;15.70;14.33;;;;;;;3.04;73.50;93141.97;4990798;28;20888;-81
2022/01/15 05:22:38;;;;;;;14.97;13.73;;;;;;;3.07;73.55;93146.69;5009542;28;20237;-81
2022/01/15 05:25:07;;;;;;;16.90;15.50;;;;;;;2.98;73.73;93141.06;5010704;28;20183;-83
2022/01/15 05:27:34;;;;;;;15.53;14.53;;;;;;;2.99;73.14;93154.75;4991674;28;20282;-81
2022/01/15 05:30:00;;;;;;;14.83;13.60;;;;;;;2.95;72.66;93169.88;5009259;28;20164;-81
2022/01/15 05:32:26;;;;;;;17.27;15.73;;;;;;;2.68;73.20;93122.25;5007540;28;20238;-83
2022/01/15 05:34:51;;;;;;;17.07;15.30;;;;;;;2.96;74.94;93162.91;5008265;28;20267;-81
2022/01/15 05:37:16;;;;;;;16.77;15.70;;;;;;;2.98;73.53;93172.03;5008681;28;20222;-82
2022/01/15 05:39:42;;;;;;;15.67;14.30;;;;;;;3.00;72.63;93158.91;5009592;28;20279;-78
2022/01/15 05:42:08;;;;;;;18.27;16.90;;;;;;;2.74;72.89;93115.44;5010438;28;20282;-82
2022/01/15 05:44:35;;;;;;;16.63;15.10;;;;;;;2.95;73.80;93148.47;5011599;28;20254;-80
2022/01/15 05:47:00;;;;;;;16.47;15.37;;;;;;;2.76;74.11;93146.91;5009769;28;20247;-84
2022/01/15 05:49:26;;;;;;;17.63;16.17;;;;;;;2.88;74.86;93152.94;4991822;28;20231;-87
2022/01/15 05:51:51;;;;;;;17.23;15.87;;;;;;;2.67;73.48;93125.84;5010190;28;20848;-83
2022/01/15 05:54:17;;;;;;;16.10;14.90;;;;;;;2.86;73.64;93160.09;5010386;28;20819;-83
2022/01/15 05:56:42;;;;;;;17.23;15.53;;;;;;;2.93;73.57;93165.94;5007934;28;20246;-85
2022/01/15 05:59:08;;;;;;;17.50;15.73;;;;;;;2.90;73.82;93181.84;5007750;28;20203;-84
2022/01/15 06:01:36;;;;;;;17.30;15.70;;;;;;;2.78;74.25;93181.00;5007991;28;20295;-80
2022/01/15 06:04:01;;;;;;;18.50;16.23;;;;;;;2.67;75.21;93177.38;5007780;28;20246;-84
2022/01/15 06:06:27;;;;;;;17.57;16.00;;;;;;;2.81;74.36;93188.31;5008935;28;20262;-87
2022/01/15 06:08:52;;;;;;;16.83;15.27;;;;;;;2.88;73.92;93194.94;5010776;28;20207;-80
2022/01/15 06:11:18;;;;;;;18.13;16.27;;;;;;;2.92;74.93;93185.00;5008180;28;20227;-86
2022/01/15 06:13:47;;;;;;;17.77;16.17;;;;;;;3.03;74.56;93182.47;4993179;28;20194;-81
2022/01/15 06:16:14;;;;;;;17.97;16.23;;;;;;;3.12;73.47;93216.47;5007624;28;20223;-83
2022/01/15 06:18:40;;;;;;;17.37;15.70;;;;;;;2.43;74.58;93131.88;4992461;28;20217;-80
2022/01/15 06:21:05;;;;;;;18.10;16.63;;;;;;;2.82;76.11;93203.56;5008726;28;20250;-80
2022/01/15 06:23:31;;;;;;;17.30;15.60;;;;;;;2.59;74.72;93187.19;5007445;28;20192;-81
2022/01/15 06:25:56;;;;;;;16.23;14.73;;;;;;;2.74;74.58;93221.91;5009610;28;20223;-82
2022/01/15 06:28:22;;;;;;;16.07;14.93;;;;;;;2.62;76.42;93184.97;5008992;28;20187;-84
2022/01/15 06:30:50;;;;;;;16.57;14.90;;;;;;;2.90;75.77;93234.22;5009671;28;20227;-82
2022/01/15 06:33:16;;;;;;;15.73;14.27;;;;;;;2.89;75.64;93227.47;4990629;28;20203;-81
2022/01/15 06:35:42;;;;;;;19.20;17.67;;;;;;;2.51;74.93;93172.00;5007604;28;20233;-82
2022/01/15 06:38:07;;;;;;;16.53;15.03;;;;;;;2.51;75.17;93202.94;4991309;28;20215;-82
2022/01/15 06:40:33;;;;;;;16.47;15.07;;;;;;;2.55;75.48;93204.09;5008360;28;20231;-82
2022/01/15 06:43:00;;;;;;;17.33;15.93;;;;;;;2.69;75.35;93231.28;5010747;28;20210;-86
2022/01/15 06:45:30;;;;;;;17.07;14.77;;;;;;;2.74;76.00;93239.16;5007642;28;20203;-84
2022/01/15 06:47:56;;;;;;;16.63;15.23;;;;;;;2.65;75.34;93235.28;5008302;28;20207;-86
2022/01/15 06:50:24;;;;;;;17.70;15.90;;;;;;;2.68;75.15;93248.53;5008164;28;20190;-84
2022/01/15 06:52:49;;;;;;;18.83;16.10;;;;;;;2.65;75.60;93250.75;4990600;28;20267;-82
2022/01/15 06:55:15;;;;;;;17.83;15.97;;;;;;;2.56;75.59;93228.84;5008824;28;20198;-83
2022/01/15 06:57:41;;;;;;;18.23;16.73;;;;;;;2.65;75.12;93230.94;5007624;28;20199;-80
2022/01/15 07:00:08;;;;;;;17.57;16.00;;;;;;;2.65;76.52;93230.94;5009574;28;20214;-85
2022/01/15 07:02:34;;;;;;;17.37;15.77;;;;;;;2.56;74.28;93213.38;5006880;28;20254;-79
2022/01/15 07:04:59;;;;;;;18.10;16.50;;;;;;;2.47;75.38;93209.53;5009680;28;20266;-80
2022/01/15 07:07:25;;;;;;;17.13;15.73;;;;;;;2.59;74.90;93238.72;5006393;28;20226;-78
2022/01/15 07:09:51;;;;;;;16.47;14.97;;;;;;;2.56;74.39;93219.34;5009711;28;20195;-79
2022/01/15 07:12:16;;;;;;;17.63;16.23;;;;;;;2.61;74.29;93234.16;5009150;28;20250;-77
2022/01/15 07:14:43;;;;;;;18.00;16.27;;;;;;;2.76;74.00;93256.00;5007771;28;20191;-79
2022/01/15 07:17:10;;;;;;;18.97;17.37;;;;;;;2.82;73.19;93257.69;5009860;28;20231;-84
2022/01/15 07:19:36;;;;;;;17.10;15.37;;;;;;;2.89;72.60;93247.31;5009469;28;20214;-82
2022/01/15 07:22:01;;;;;;;16.03;14.60;;;;;;;3.09;72.24;93271.06;5008996;28;20291;-84
2022/01/15 07:24:27;;;;;;;17.60;15.80;;;;;;;2.99;71.66;93253.53;5009285;28;20222;-85
2022/01/15 07:26:52;;;;;;;16.67;15.30;;;;;;;3.01;72.12;93254.13;4990683;28;20234;-80
2022/01/15 07:29:17;;;;;;;18.20;16.53;;;;;;;3.19;72.16;93279.09;4991999;28;20211;-85
2022/01/15 07:31:47;;;;;;;18.17;16.30;;;;;;;3.09;71.52;93286.56;5008074;28;20227;-83
2022/01/15 07:34:14;;;;;;;17.70;16.03;;;;;;;3.02;71.78;93268.56;5007530;28;20211;-82
2022/01/15 07:36:40;;;;;;;18.07;16.27;;;;;;;3.24;72.28;93299.84;5007325;28;20246;-75
2022/01/15 07:39:09;;;;;;;20.50;18.53;;;;;;;3.22;71.89;93299.31;5007934;28;20222;-76
2022/01/15 07:41:36;;;;;;;19.13;17.23;;;;;;;3.32;71.64;93291.81;5007904;28;20233;-76
2022/01/15 07:44:01;;;;;;;21.57;19.33;;;;;;;3.07;72.23;93296.28;5009247;28;20195;-77
2022/01/15 07:46:27;;;;;;;20.77;18.67;;;;;;;2.94;72.34;93306.78;5008607;28;20254;-77
2022/01/15 07:48:52;;;;;;;19.47;17.73;;;;;;;2.76;73.31;93288.69;5009152;28;20203;-80
2022/01/15 07:51:18;;;;;;;20.17;18.10;;;;;;;3.05;73.40;93313.78;4990766;28;20322;-78
2022/01/15 07:53:44;;;;;;;24.30;20.27;;;;;;;2.85;73.35;93297.72;4991451;28;20183;-78
2022/01/15 07:56:10;;;;;;;23.30;18.43;;;;;;;3.06;72.52;93310.19;5007979;28;20231;-79
2022/01/15 07:58:35;;;;;;;22.77;20.33;;;;;;;3.17;73.19;93294.78;5007986;28;20215;-79
2022/01/15 08:01:00;;;;;;;18.87;17.07;;;;;;;2.95;72.47;93328.97;5007330;28;20246;-78
2022/01/15 08:03:26;;;;;;;22.83;19.27;;;;;;;2.81;72.84;93309.47;5007952;28;20207;-77
2022/01/15 08:05:51;;;;;;;19.90;18.27;;;;;;;2.66;73.95;93263.41;5009507;28;20283;-79
2022/01/15 08:08:17;;;;;;;22.33;19.97;;;;;;;3.18;71.94;93329.09;5008639;28;20195;-78
2022/01/15 08:10:44;;;;;;;20.20;18.07;;;;;;;3.01;71.81;93321.16;5007115;28;20223;-78
2022/01/15 08:13:10;;;;;;;20.77;18.80;;;;;;;3.12;71.83;93333.34;5007188;28;20196;-79
2022/01/15 08:15:36;;;;;;;22.63;20.23;;;;;;;3.04;72.14;93325.09;5008565;28;20240;-78
2022/01/15 08:18:02;;;;;;;20.70;18.50;;;;;;;2.95;71.86;93350.41;5008014;28;20291;-78
2022/01/15 08:20:27;;;;;;;22.13;19.73;;;;;;;3.11;72.17;93357.53;5010274;28;20916;-79
2022/01/15 08:22:53;;;;;;;20.87;18.67;;;;;;;2.95;72.49;93359.91;5012961;28;20209;-79
2022/01/15 08:25:19;;;;;;;23.13;19.47;;;;;;;3.13;71.99;93378.75;4993696;28;20251;-78
2022/01/15 08:27:46;;;;;;;17.83;15.97;;;;;;;2.88;71.92;93359.19;5011854;28;20210;-80
2022/01/15 08:30:13;;;;;;;18.87;16.90;;;;;;;3.07;71.29;93363.34;5011798;28;20207;-79
2022/01/15 08:32:38;;;;;;;20.03;17.93;;;;;;;3.15;72.02;93375.97;5009036;28;20230;-79
2022/01/15 08:35:06;;;;;;;20.27;18.13;;;;;;;2.96;72.03;93351.16;5009998;28;20199;-78
2022/01/15 08:37:32;;;;;;;18.83;16.27;;;;;;;2.94;70.99;93329.97;5009364;28;20239;-78
2022/01/15 08:39:57;;;;;;;23.77;19.27;;;;;;;3.20;71.09;93364.00;5012932;28;20195;-78
2022/01/15 08:42:23;;;;;;;23.20;18.43;;;;;;;3.10;70.84;93352.59;5011564;28;20254;-78
2022/01/15 08:44:51;;;;;;;21.00;18.97;;;;;;;3.05;70.86;93348.09;5011980;28;20206;-78
2022/01/15 08:47:16;;;;;;;25.23;20.17;;;;;;;3.22;72.67;93371.53;5011798;28;21068;-78
2022/01/15 08:49:41;;;;;;;22.00;19.27;;;;;;;3.10;70.44;93388.72;5010915;28;20214;-78
2022/01/15 08:52:07;;;;;;;21.27;18.00;;;;;;;2.95;70.64;93396.00;5012494;28;20249;-77
2022/01/15 08:54:32;;;;;;;26.23;20.40;;;;;;;3.37;70.61;93392.59;5010984;28;20200;-78
2022/01/15 08:56:58;;;;;;;22.10;19.23;;;;;;;3.17;70.32;93374.75;5010954;28;20259;-76
2022/01/15 08:59:26;;;;;;;22.67;18.20;;;;;;;3.25;69.38;93402.84;5010896;28;20271;-82
2022/01/15 09:01:53;;;;;;;23.83;19.00;;;;;;;3.58;68.28;93406.88;5010835;28;20299;-81
2022/01/15 09:04:18;;;;;;;20.40;18.40;;;;;;;3.06;69.77;93397.88;5013575;28;20207;-78
2022/01/15 09:06:44;;;;;;;20.10;18.00;;;;;;;3.17;69.62;93389.44;5011326;28;20227;-86
2022/01/15 09:09:09;;;;;;;20.20;18.20;;;;;;;3.15;68.96;93407.72;5012184;28;20191;-81
2022/01/15 09:11:35;;;;;;;20.13;18.07;;;;;;;2.84;70.02;93383.81;4994135;28;20238;-77
2022/01/15 09:14:00;;;;;;;19.30;17.23;;;;;;;3.10;70.12;93420.47;5010929;28;20207;-81
2022/01/15 09:16:25;;;;;;;23.13;19.07;;;;;;;2.95;70.76;93419.22;4994698;28;20290;-82
2022/01/15 09:18:51;;;;;;;22.07;19.40;;;;;;;3.10;69.82;93393.88;5011787;28;20238;-81
2022/01/15 09:21:17;;;;;;;20.03;17.93;;;;;;;3.24;69.34;93393.53;5009806;28;20223;-76
2022/01/15 09:23:42;;;;;;;21.77;19.40;;;;;;;3.56;68.89;93399.34;5011765;28;20206;-84
2022/01/15 09:26:18;;;;;;;21.57;19.10;;;;;;;3.48;68.51;93406.56;5010800;28;20219;-81
2022/01/15 09:31:28;;;;;;;21.33;18.80;;;;;;;3.04;69.38;93389.56;5008765;28;20269;-79
2022/01/15 09:33:53;;;;;;;19.10;17.10;;;;;;;2.84;69.05;93358.03;5013091;28;20195;-83
2022/01/15 09:36:19;;;;;;;23.50;19.63;;;;;;;2.90;70.18;93391.50;5010237;28;20231;-83
2022/01/15 09:38:44;;;;;;;22.23;19.80;;;;;;;2.88;70.96;93384.97;5011145;28;20223;-83
2022/01/15 09:41:11;;;;;;;20.87;18.67;;;;;;;2.99;70.77;93381.69;5010658;28;20215;-83
2022/01/15 09:43:39;;;;;;;27.57;21.03;;;;;;;3.16;69.96;93368.00;5010728;28;20199;-83
2022/01/15 09:46:06;;;;;;;22.37;19.97;;;;;;;2.99;70.26;93373.94;5012101;28;20258;-80
2022/01/15 09:48:33;;;;;;;21.40;18.60;;;;;;;2.77;70.11;93360.66;5011087;28;20195;-81
2022/01/15 09:50:58;;;;;;;23.30;19.57;;;;;;;2.88;69.49;93372.09;4994498;28;20228;-82
2022/01/15 09:53:24;;;;;;;19.47;16.23;;;;;;;2.70;69.54;93372.84;5011945;28;20183;-81
2022/01/15 09:55:52;;;;;;;21.60;18.77;;;;;;;2.84;69.63;93363.19;5010121;28;20227;-80
2022/01/15 09:58:18;;;;;;;19.67;17.60;;;;;;;2.81;69.32;93359.25;5009836;28;20199;-81
2022/01/15 10:00:44;;;;;;;25.80;21.13;;;;;;;2.76;68.66;93358.31;5010537;28;20230;-82
2022/01/15 10:03:09;;;;;;;19.47;17.27;;;;;;;3.16;68.65;93390.44;5011525;28;20217;-84
2022/01/15 10:05:35;;;;;;;18.97;17.00;;;;;;;2.86;68.47;93348.31;5010319;28;20219;-81
2022/01/15 10:08:13;;;;;;;19.50;17.00;;;;;;;3.40;67.20;93391.38;5010214;28;20233;-82
2022/01/15 10:10:40;;;;;;;16.60;15.00;;;;;;;3.47;66.33;93405.00;5010461;28;20221;-83
2022/01/15 10:13:21;;;;;;;17.70;16.03;;;;;;;3.59;66.72;93388.56;5009643;28;20191;-80
2022/01/15 10:16:07;;;;;;;19.67;17.57;;;;;;;3.40;65.92;93357.81;5008404;28;20254;-80
2022/01/15 10:18:35;;;;;;;19.93;17.43;;;;;;;3.46;66.46;93339.69;5010813;28;20219;-81
2022/01/15 10:21:15;;;;;;;18.40;15.57;;;;;;;3.86;64.80;93407.88;4993493;28;20231;-82
2022/01/15 10:23:49;;;;;;;19.20;17.23;;;;;;;3.58;66.28;93402.47;5010225;28;20305;-82
2022/01/15 10:26:20;;;;;;;18.97;17.20;;;;;;;3.26;66.07;93352.84;5009067;28;20234;-81
2022/01/15 10:28:53;;;;;;;17.10;15.40;;;;;;;3.43;66.45;93396.91;4993935;28;20226;-82
2022/01/15 10:31:20;;;;;;;20.10;17.23;;;;;;;3.23;66.54;93376.47;4993988;28;20661;-80
2022/01/15 10:33:46;;;;;;;19.73;17.73;;;;;;;3.30;67.41;93368.66;5010797;28;20203;-83
2022/01/15 10:36:25;;;;;;;17.73;15.83;;;;;;;3.42;66.82;93377.25;5008974;28;20250;-82
2022/01/15 10:38:52;;;;;;;17.53;15.77;;;;;;;3.09;67.58;93348.44;5007534;28;20273;-82
2022/01/15 10:41:36;;;;;;;22.07;19.77;;;;;;;3.49;67.09;93367.63;5009374;28;20258;-83
2022/01/15 10:44:22;;;;;;;21.27;18.50;;;;;;;3.30;67.01;93329.94;5010472;28;20180;-83
2022/01/15 10:46:48;;;;;;;20.53;17.17;;;;;;;3.49;65.82;93347.00;5009058;28;20227;-84
2022/01/15 10:49:25;;;;;;;18.23;16.03;;;;;;;3.50;65.96;93366.66;5011485;28;20207;-82
2022/01/15 10:52:11;;;;;;;17.03;15.53;;;;;;;3.53;65.55;93363.63;5010190;28;20231;-80
2022/01/15 10:54:52;;;;;;;19.80;17.87;;;;;;;3.59;66.27;93362.75;5010136;28;20224;-80
2022/01/15 10:57:23;;;;;;;20.40;16.50;;;;;;;3.63;66.42;93368.28;5007481;28;20291;-85
2022/01/15 10:59:59;;;;;;;19.70;16.83;;;;;;;3.75;65.25;93371.69;5011586;28;21012;-83
2022/01/15 11:02:24;;;;;;;18.03;16.20;;;;;;;3.81;65.06;93371.63;5008320;28;20241;-80
2022/01/15 11:04:50;;;;;;;20.57;17.40;;;;;;;3.86;64.73;93374.31;5008070;28;20184;-82
2022/01/15 11:07:17;;;;;;;19.70;17.67;;;;;;;3.93;65.02;93380.19;5009193;28;20223;-81
2022/01/15 11:09:44;;;;;;;21.00;18.50;;;;;;;4.04;65.01;93381.22;5009527;28;20195;-82
2022/01/15 11:12:11;;;;;;;20.80;18.50;;;;;;;4.09;64.53;93382.16;5009085;28;20231;-82
2022/01/15 11:14:37;;;;;;;21.00;18.83;;;;;;;4.19;64.00;93374.66;5009534;28;20253;-83
2022/01/15 11:17:03;;;;;;;18.73;16.93;;;;;;;4.13;63.36;93379.91;5009247;28;20235;-85
2022/01/15 11:19:33;;;;;;;18.57;16.73;;;;;;;4.18;63.63;93367.91;5008811;28;20226;-83
2022/01/15 11:22:00;;;;;;;20.50;17.60;;;;;;;4.38;63.13;93378.75;5009758;28;20283;-81
2022/01/15 11:24:25;;;;;;;18.57;16.63;;;;;;;4.13;63.41;93360.03;5008856;28;20223;-81
2022/01/15 11:26:55;;;;;;;18.20;16.60;;;;;;;3.94;63.39;93337.09;5008469;28;20767;-81
2022/01/15 11:29:21;;;;;;;17.70;16.20;;;;;;;4.01;64.04;93361.00;5007417;28;20187;-78
2022/01/15 11:31:46;;;;;;;18.87;16.87;;;;;;;4.00;64.82;93349.88;5008822;28;20223;-78
2022/01/15 11:34:14;;;;;;;19.77;17.67;;;;;;;4.07;64.48;93354.97;5008400;28;20180;-78
2022/01/15 11:36:43;;;;;;;18.70;16.70;;;;;;;3.98;64.11;93354.50;5007969;28;20231;-76
2022/01/15 11:39:13;;;;;;;20.83;18.83;;;;;;;4.07;64.61;93334.28;5008197;28;20277;-78
2022/01/15 11:41:52;;;;;;;21.47;19.23;;;;;;;4.40;63.56;93355.25;5007910;28;20219;-76
2022/01/15 11:44:29;;;;;;;23.93;19.33;;;;;;;4.54;63.90;93354.03;5008572;28;20206;-77
2022/01/15 11:46:57;;;;;;;21.33;18.17;;;;;;;4.80;63.38;93353.59;5007890;28;20238;-77
2022/01/15 11:49:36;;;;;;;20.47;18.47;;;;;;;5.16;61.39;93360.34;5009532;28;20199;-78
2022/01/15 11:52:11;;;;;;;19.37;17.73;;;;;;;4.85;61.90;93353.72;5007604;28;20226;-78
2022/01/15 11:54:56;;;;;;;18.30;16.40;;;;;;;4.68;61.91;93345.84;5012488;28;20641;-78
2022/01/15 11:57:24;;;;;;;19.43;17.50;;;;;;;4.75;63.06;93354.28;5012059;28;20219;-78